Briarwood, New York
Current Conditions -  °F | °C
As of 3:51 AM on Monday 24 Nov 2014 (Local Time) from KJFK Reporting Station
Moderate Rain Moderate Rain  
Wind Chill: 60°   Ceiling: 2000
Heat Index: 60°   Visibility: 5mi
Dew Point: 57°   Wind: 26mph
Humidity: 90%   Direction: 150°SSE
Pressure: 29.8"   Gusts: 35mph
Location:  40.7006°N, 73.8099°W
Report Text: KJFK 240851Z 15023G30KT 5SM RA BR FEW008 OVC020 16/14 A2980 RMK AO2 PK WND 14030/0851 SLP089 P0012 60017 T01560139 58052 $
Loading
Personal Weather Stations






























Interactive Weather Map New forecast layout! Learn more

10-Day Weather Forecast

Advertisements
Track Severe Weather on mobile